createdAt,value
2019-02-18T00:01:38.084Z,3.83
2019-02-18T00:04:05.524Z,5.20
2019-02-18T00:06:33.042Z,4.70
2019-02-18T00:09:00.758Z,4.93
2019-02-18T00:11:28.156Z,4.73
2019-02-18T00:13:55.539Z,4.77
2019-02-18T00:16:22.851Z,4.93
2019-02-18T00:18:50.210Z,4.20
2019-02-18T00:21:17.615Z,4.80
2019-02-18T00:23:47.323Z,4.93
2019-02-18T00:26:14.694Z,4.50
2019-02-18T00:28:42.067Z,3.73
2019-02-18T00:31:09.405Z,3.97
2019-02-18T00:33:36.875Z,4.27
2019-02-18T00:36:04.339Z,4.07
2019-02-18T00:38:31.695Z,3.67
2019-02-18T00:40:59.121Z,4.23
2019-02-18T00:43:26.535Z,5.17
2019-02-18T00:45:53.939Z,3.03
2019-02-18T00:48:21.376Z,4.13
2019-02-18T00:50:48.691Z,5.00
2019-02-18T00:53:16.086Z,3.93
2019-02-18T00:55:43.421Z,4.43
2019-02-18T00:58:10.800Z,4.57
2019-02-18T01:00:38.173Z,3.97
2019-02-18T01:03:05.467Z,3.53
2019-02-18T01:05:32.979Z,3.60
2019-02-18T01:08:00.391Z,3.50
2019-02-18T01:10:27.697Z,4.30
2019-02-18T01:12:55.040Z,3.87
2019-02-18T01:15:22.560Z,3.90
2019-02-18T01:17:50.039Z,3.53
2019-02-18T01:20:17.442Z,3.33
2019-02-18T01:22:44.810Z,3.17
2019-02-18T01:25:12.175Z,3.73
2019-02-18T01:27:39.651Z,3.63
2019-02-18T01:30:10.077Z,4.10
2019-02-18T01:32:37.721Z,3.37
2019-02-18T01:35:05.685Z,3.63
2019-02-18T01:37:33.226Z,3.60
2019-02-18T01:40:00.667Z,2.93
2019-02-18T01:42:28.055Z,3.23
2019-02-18T01:44:55.406Z,4.73
2019-02-18T01:47:22.764Z,4.23
2019-02-18T01:49:50.131Z,4.03
2019-02-18T01:52:17.550Z,4.03
2019-02-18T01:54:44.893Z,2.97
2019-02-18T01:57:12.449Z,4.30
2019-02-18T01:59:39.711Z,3.73
2019-02-18T02:02:07.084Z,3.53
2019-02-18T02:04:34.507Z,3.63
2019-02-18T02:07:01.827Z,3.73
2019-02-18T02:09:29.078Z,3.40
2019-02-18T02:11:56.409Z,3.60
2019-02-18T02:14:23.808Z,4.13
2019-02-18T02:16:51.091Z,3.80
2019-02-18T02:19:18.603Z,3.43
2019-02-18T02:21:46.010Z,3.80
2019-02-18T02:24:13.368Z,3.87
2019-02-18T02:26:40.738Z,3.90
2019-02-18T02:29:08.062Z,4.53
2019-02-18T02:31:35.378Z,3.57
2019-02-18T02:34:02.726Z,3.10
2019-02-18T02:36:30.159Z,3.67
2019-02-18T02:38:57.535Z,3.37
2019-02-18T02:41:24.869Z,3.60
2019-02-18T02:43:52.195Z,3.30
2019-02-18T02:46:19.601Z,3.20
2019-02-18T02:48:46.920Z,3.97
2019-02-18T02:51:14.247Z,3.40
2019-02-18T02:53:41.678Z,3.93
2019-02-18T02:56:09.119Z,3.53
2019-02-18T02:58:36.803Z,3.00
2019-02-18T03:01:03.980Z,3.53
2019-02-18T03:03:31.348Z,3.13
2019-02-18T03:05:58.513Z,3.70
2019-02-18T03:08:25.798Z,3.40
2019-02-18T03:10:53.163Z,3.80
2019-02-18T03:13:20.584Z,3.20
2019-02-18T03:15:48.013Z,3.53
2019-02-18T03:18:15.320Z,3.30
2019-02-18T03:20:42.750Z,2.93
2019-02-18T03:23:10.101Z,3.33
2019-02-18T03:25:37.370Z,3.27
2019-02-18T03:28:13.057Z,3.17
2019-02-18T03:31:03.546Z,3.40
2019-02-18T03:33:55.594Z,4.10
2019-02-18T03:36:22.910Z,3.20
2019-02-18T03:38:50.195Z,3.80
2019-02-18T03:41:17.612Z,3.97
2019-02-18T03:43:44.999Z,4.10
2019-02-18T03:46:12.515Z,3.57
2019-02-18T03:48:39.884Z,3.87
2019-02-18T03:51:07.288Z,3.70
2019-02-18T03:53:34.566Z,4.87
2019-02-18T03:56:01.923Z,3.57
2019-02-18T03:58:29.162Z,6.00
2019-02-18T04:00:56.560Z,4.53
2019-02-18T04:03:24.363Z,4.47
2019-02-18T04:05:51.699Z,5.00
2019-02-18T04:08:19.113Z,6.33
2019-02-18T04:10:49.202Z,7.23
2019-02-18T04:13:16.629Z,6.93
2019-02-18T04:15:43.907Z,5.37
2019-02-18T04:18:11.129Z,5.93
2019-02-18T04:20:38.549Z,5.97
2019-02-18T04:23:05.881Z,6.70
2019-02-18T04:25:33.262Z,6.23
2019-02-18T04:28:00.559Z,5.87
2019-02-18T04:30:27.973Z,5.47
2019-02-18T04:32:55.468Z,5.73
2019-02-18T04:35:22.937Z,4.77
2019-02-18T04:37:50.390Z,4.83
2019-02-18T04:40:17.718Z,4.43
2019-02-18T04:42:45.042Z,5.17
2019-02-18T04:45:12.313Z,5.37
2019-02-18T04:47:39.765Z,5.23
2019-02-18T04:50:07.137Z,5.47
2019-02-18T04:52:34.305Z,5.90
2019-02-18T04:55:01.658Z,4.03
2019-02-18T04:57:31.361Z,4.93
2019-02-18T04:59:58.282Z,4.00
2019-02-18T05:02:25.619Z,4.63
2019-02-18T05:04:53.014Z,5.23
2019-02-18T05:07:20.448Z,3.97
2019-02-18T05:09:47.804Z,4.23
2019-02-18T05:12:15.120Z,3.73
2019-02-18T05:14:42.467Z,3.03
2019-02-18T05:17:09.865Z,2.87
2019-02-18T05:19:37.395Z,5.10
2019-02-18T05:22:04.697Z,2.40
2019-02-18T05:24:32.013Z,3.87
2019-02-18T05:26:59.451Z,4.43
2019-02-18T05:29:26.950Z,3.07
2019-02-18T05:31:54.374Z,2.57
2019-02-18T05:34:21.745Z,3.27
2019-02-18T05:36:49.098Z,3.70
2019-02-18T05:39:18.393Z,2.90
2019-02-18T05:41:45.824Z,3.57
2019-02-18T05:44:13.247Z,3.10
2019-02-18T05:46:40.649Z,4.87
2019-02-18T05:49:08.019Z,3.90
2019-02-18T05:51:35.407Z,3.30
2019-02-18T05:54:02.822Z,3.53
2019-02-18T05:56:30.151Z,3.13
2019-02-18T05:58:57.608Z,3.63
2019-02-18T06:01:25.071Z,3.83
2019-02-18T06:03:52.447Z,4.83
2019-02-18T06:06:19.811Z,5.27
2019-02-18T06:08:47.230Z,3.23
2019-02-18T06:11:14.638Z,3.23
2019-02-18T06:13:41.957Z,3.57
2019-02-18T06:16:12.289Z,4.00
2019-02-18T06:18:39.694Z,3.13
2019-02-18T06:21:10.028Z,3.90
2019-02-18T06:27:07.457Z,3.93
2019-02-18T06:29:55.239Z,3.33
2019-02-18T06:32:31.735Z,4.87
2019-02-18T06:35:45.143Z,3.17
2019-02-18T06:41:41.122Z,3.67
2019-02-18T06:44:08.666Z,3.40
2019-02-18T06:46:39.229Z,3.60
2019-02-18T06:49:15.033Z,4.17
2019-02-18T06:53:59.169Z,2.77
2019-02-18T06:56:44.212Z,4.97
2019-02-18T06:59:18.535Z,3.87
2019-02-18T07:01:56.711Z,4.10
2019-02-18T07:04:35.141Z,4.77
2019-02-18T07:07:10.969Z,4.37
2019-02-18T07:09:52.485Z,4.90
2019-02-18T07:12:29.243Z,5.13
2019-02-18T07:14:56.634Z,4.50
2019-02-18T07:17:24.017Z,4.70
2019-02-18T07:19:51.588Z,6.50
2019-02-18T07:22:19.102Z,5.17
2019-02-18T07:24:46.599Z,5.00
2019-02-18T07:27:13.789Z,5.97
2019-02-18T07:29:41.165Z,5.33
2019-02-18T07:32:09.022Z,5.40
2019-02-18T07:34:36.379Z,5.77
2019-02-18T07:37:03.747Z,6.50
2019-02-18T07:39:31.878Z,5.60
2019-02-18T07:41:59.225Z,5.73
2019-02-18T07:44:26.663Z,5.97
2019-02-18T07:46:54.414Z,6.07
2019-02-18T07:49:22.075Z,5.40
2019-02-18T07:51:49.787Z,6.27
2019-02-18T07:54:17.125Z,5.00
2019-02-18T07:56:44.815Z,8.40
2019-02-18T07:59:12.235Z,6.10
2019-02-18T08:01:39.741Z,3.60
2019-02-18T08:04:07.199Z,4.90
2019-02-18T08:06:34.686Z,5.90
2019-02-18T08:09:04.929Z,3.23
2019-02-18T08:11:32.294Z,4.13
2019-02-18T08:13:59.818Z,4.00
2019-02-18T08:16:27.142Z,3.80
2019-02-18T08:18:54.432Z,2.67
2019-02-18T08:21:21.999Z,5.00
2019-02-18T08:23:59.427Z,4.63
2019-02-18T08:26:18.526Z,3.37
2019-02-18T08:28:45.802Z,3.30
2019-02-18T08:31:13.194Z,3.30
2019-02-18T08:33:40.671Z,5.43
2019-02-18T08:36:08.017Z,3.73
2019-02-18T08:38:35.486Z,5.23
2019-02-18T08:41:02.894Z,3.67
2019-02-18T08:43:30.178Z,4.43
2019-02-18T08:45:57.585Z,3.50
2019-02-18T08:48:24.923Z,3.23
2019-02-18T08:50:52.826Z,3.00
2019-02-18T08:53:20.208Z,5.37
2019-02-18T08:55:47.638Z,3.97
2019-02-18T08:58:15.079Z,3.10
2019-02-18T09:00:42.375Z,4.00
2019-02-18T09:03:09.708Z,3.63
2019-02-18T09:05:37.167Z,5.57
2019-02-18T09:08:04.458Z,6.40
2019-02-18T09:10:33.898Z,3.37
2019-02-18T09:13:01.069Z,3.37
2019-02-18T09:15:28.398Z,3.50
2019-02-18T09:17:55.753Z,3.30
2019-02-18T09:20:25.468Z,3.77
2019-02-18T09:23:03.186Z,4.67
2019-02-18T09:25:34.908Z,4.23
2019-02-18T09:28:02.379Z,3.70
2019-02-18T09:30:32.258Z,3.97
2019-02-18T09:32:59.571Z,3.67
2019-02-18T09:35:26.956Z,3.93
2019-02-18T09:37:54.288Z,3.63
2019-02-18T09:40:21.725Z,3.87
2019-02-18T09:42:49.109Z,3.67
2019-02-18T09:45:16.508Z,3.70
2019-02-18T09:47:43.814Z,5.03
2019-02-18T09:50:11.211Z,4.60
2019-02-18T09:53:44.236Z,3.67
2019-02-18T09:56:11.543Z,3.67
2019-02-18T09:58:39.406Z,3.33
2019-02-18T10:01:06.742Z,5.20
2019-02-18T10:03:34.227Z,4.13
2019-02-18T10:06:01.626Z,5.17
2019-02-18T10:08:29.044Z,3.90
2019-02-18T10:10:56.562Z,4.67
2019-02-18T10:13:24.119Z,4.33
2019-02-18T10:15:51.738Z,3.60
2019-02-18T10:18:19.195Z,4.20
2019-02-18T10:20:46.768Z,5.17
2019-02-18T10:24:11.665Z,3.40
2019-02-18T10:26:39.085Z,3.53
2019-02-18T10:29:06.457Z,3.30
2019-02-18T10:31:33.810Z,3.10
2019-02-18T10:34:01.198Z,3.70
2019-02-18T10:36:28.628Z,6.57
2019-02-18T10:38:56.209Z,10.40
2019-02-18T10:41:23.625Z,6.77
2019-02-18T10:43:51.068Z,4.07
2019-02-18T10:46:18.475Z,4.10
2019-02-18T10:48:45.893Z,5.83
2019-02-18T10:51:13.233Z,5.63
2019-02-18T10:53:40.734Z,5.77
2019-02-18T10:56:08.273Z,4.37
2019-02-18T10:58:35.600Z,4.00
2019-02-18T11:01:03.528Z,4.60
2019-02-18T11:03:30.957Z,4.23
2019-02-18T11:05:58.543Z,3.60
2019-02-18T11:08:25.969Z,4.77
2019-02-18T11:10:53.278Z,3.50
2019-02-18T11:13:20.657Z,5.27
2019-02-18T11:15:47.977Z,3.57
2019-02-18T11:18:15.449Z,4.87
2019-02-18T11:20:42.997Z,3.97
2019-02-18T11:23:52.856Z,3.70
2019-02-18T11:26:20.278Z,4.97
2019-02-18T11:28:47.605Z,3.90
2019-02-18T11:31:15.085Z,3.73
2019-02-18T11:33:42.708Z,4.00
2019-02-18T11:36:10.319Z,4.23
2019-02-18T11:38:37.910Z,3.53
2019-02-18T11:41:05.366Z,4.20
2019-02-18T11:43:32.816Z,4.90
2019-02-18T11:46:00.128Z,4.07
2019-02-18T11:48:27.578Z,3.93
2019-02-18T11:50:54.909Z,4.50
2019-02-18T11:53:22.379Z,4.40
2019-02-18T11:55:49.816Z,4.20
2019-02-18T11:58:17.128Z,3.83
2019-02-18T12:00:44.428Z,5.40
2019-02-18T12:03:12.666Z,3.70
2019-02-18T12:05:40.260Z,3.73
2019-02-18T12:08:07.732Z,4.13
2019-02-18T12:10:35.192Z,5.37
2019-02-18T12:13:02.644Z,3.97
2019-02-18T12:15:30.053Z,4.23
2019-02-18T12:17:57.458Z,4.13
2019-02-18T12:20:24.812Z,6.03
2019-02-18T12:22:52.334Z,5.27
2019-02-18T12:25:20.355Z,3.93
2019-02-18T12:27:47.794Z,3.90
2019-02-18T12:30:15.207Z,3.60
2019-02-18T12:32:42.621Z,4.50
2019-02-18T12:35:10.181Z,3.53
2019-02-18T12:37:37.578Z,3.70
2019-02-18T12:40:24.849Z,4.00
2019-02-18T12:42:52.290Z,3.73
2019-02-18T12:45:19.683Z,5.13
2019-02-18T12:47:47.165Z,4.10
2019-02-18T12:50:14.585Z,4.10
2019-02-18T12:52:42.025Z,4.63
2019-02-18T12:55:09.713Z,6.30
2019-02-18T12:57:37.677Z,5.07
2019-02-18T13:00:05.868Z,5.53
2019-02-18T13:02:43.358Z,5.83
2019-02-18T13:05:03.682Z,5.40
2019-02-18T13:07:31.122Z,4.57
2019-02-18T13:09:58.509Z,6.33
2019-02-18T13:12:25.971Z,5.87
2019-02-18T13:14:53.385Z,4.33
2019-02-18T13:17:21.137Z,6.60
2019-02-18T13:19:48.524Z,11.17
2019-02-18T13:22:15.971Z,3.97
2019-02-18T13:24:43.439Z,5.60
2019-02-18T13:27:10.798Z,6.83
2019-02-18T13:29:38.183Z,5.23
2019-02-18T13:32:05.655Z,4.87
2019-02-18T13:34:33.052Z,4.83
2019-02-18T13:37:02.296Z,4.97
2019-02-18T13:39:29.648Z,5.97
2019-02-18T13:41:57.133Z,5.40
2019-02-18T13:44:24.495Z,4.60
2019-02-18T13:46:52.153Z,5.33
2019-02-18T13:49:19.539Z,3.80
2019-02-18T13:51:46.895Z,8.53
2019-02-18T13:54:14.587Z,3.90
2019-02-18T13:56:42.147Z,6.37
2019-02-18T13:59:09.455Z,4.33
2019-02-18T14:01:36.854Z,4.60
2019-02-18T14:04:04.256Z,5.13
2019-02-18T14:06:31.689Z,4.50
2019-02-18T14:08:59.042Z,4.17
2019-02-18T14:11:26.714Z,11.43
2019-02-18T14:13:54.141Z,4.27
2019-02-18T14:16:21.563Z,4.73
2019-02-18T14:18:48.943Z,3.63
2019-02-18T14:21:16.270Z,4.50
2019-02-18T14:23:43.737Z,3.90
2019-02-18T14:26:11.164Z,5.13
2019-02-18T14:28:38.952Z,3.70
2019-02-18T14:31:06.531Z,3.50
2019-02-18T14:33:34.012Z,3.23
2019-02-18T14:36:01.356Z,4.13
2019-02-18T14:38:29.530Z,5.47
2019-02-18T14:40:56.895Z,4.17
2019-02-18T14:43:24.192Z,3.73
2019-02-18T14:45:51.836Z,4.23
2019-02-18T14:48:19.300Z,4.53
2019-02-18T14:50:46.893Z,3.17
2019-02-18T14:53:14.381Z,3.73
2019-02-18T14:55:41.845Z,3.30
2019-02-18T14:58:09.515Z,2.90
2019-02-18T15:00:37.279Z,3.40
2019-02-18T15:03:05.084Z,4.00
2019-02-18T15:05:32.508Z,2.97
2019-02-18T15:07:59.922Z,3.10
2019-02-18T15:10:27.281Z,3.33
2019-02-18T15:12:54.771Z,3.60
2019-02-18T15:15:22.157Z,3.80
2019-02-18T15:17:49.567Z,3.37
2019-02-18T15:20:17.394Z,3.50
2019-02-18T15:22:53.593Z,4.80
2019-02-18T15:25:21.019Z,4.50
2019-02-18T15:27:51.500Z,3.87
2019-02-18T15:30:19.198Z,4.40
2019-02-18T15:32:46.689Z,3.87
2019-02-18T15:35:14.671Z,3.80
2019-02-18T15:37:44.876Z,3.67
2019-02-18T15:40:14.368Z,4.53
2019-02-18T15:42:42.779Z,5.00
2019-02-18T15:45:30.247Z,4.47
2019-02-18T15:48:01.687Z,6.37
2019-02-18T15:50:27.067Z,5.33
2019-02-18T15:52:56.237Z,4.03
2019-02-18T15:55:28.602Z,3.90
2019-02-18T15:57:56.027Z,5.07
2019-02-18T16:00:23.690Z,4.90
2019-02-18T16:02:53.985Z,4.77
2019-02-18T16:05:22.083Z,4.80
2019-02-18T16:07:49.541Z,4.67
2019-02-18T16:10:17.110Z,5.50
2019-02-18T16:12:50.836Z,4.43
2019-02-18T16:15:21.980Z,4.20
2019-02-18T16:17:50.140Z,4.83
2019-02-18T16:20:18.221Z,4.50
2019-02-18T16:22:45.622Z,4.43
2019-02-18T16:25:15.302Z,6.40
2019-02-18T16:27:45.735Z,4.47
2019-02-18T16:30:13.411Z,4.23
2019-02-18T16:32:41.334Z,5.23
2019-02-18T16:35:08.965Z,4.30
2019-02-18T16:37:42.186Z,5.63
2019-02-18T16:40:12.780Z,5.97
2019-02-18T16:42:43.793Z,5.33
2019-02-18T16:45:13.506Z,4.90
2019-02-18T16:47:41.714Z,5.27
2019-02-18T16:50:09.684Z,4.97
2019-02-18T16:52:39.177Z,6.73
2019-02-18T16:55:07.847Z,4.90
2019-02-18T16:57:35.410Z,6.07
2019-02-18T17:00:05.769Z,6.70
2019-02-18T17:02:33.393Z,5.90
2019-02-18T17:05:00.903Z,5.77
2019-02-18T17:07:28.628Z,5.60
2019-02-18T17:09:56.134Z,5.30
2019-02-18T17:12:23.963Z,6.47
2019-02-18T17:15:11.693Z,6.70
2019-02-18T17:17:39.574Z,6.00
2019-02-18T17:20:09.591Z,5.40
2019-02-18T17:22:37.213Z,6.27
2019-02-18T17:25:25.146Z,5.60
2019-02-18T17:28:14.670Z,6.37
2019-02-18T17:30:48.376Z,5.27
2019-02-18T17:33:45.096Z,6.17
2019-02-18T17:36:15.366Z,5.33
2019-02-18T17:38:42.908Z,6.57
2019-02-18T17:41:10.496Z,5.47
2019-02-18T17:43:38.235Z,8.07
2019-02-18T17:46:08.321Z,7.20
2019-02-18T17:48:42.478Z,6.07
2019-02-18T17:51:10.190Z,6.60
2019-02-18T17:53:37.641Z,6.20
2019-02-18T17:56:05.301Z,7.70
2019-02-18T17:58:33.071Z,7.43
2019-02-18T18:01:00.529Z,7.87
2019-02-18T18:03:27.957Z,7.67
2019-02-18T18:05:55.516Z,6.33
2019-02-18T18:08:23.004Z,7.50
2019-02-18T18:10:51.578Z,7.70
2019-02-18T18:13:24.927Z,8.80
2019-02-18T18:15:48.539Z,7.10
2019-02-18T18:18:16.358Z,7.13
2019-02-18T18:20:43.873Z,8.73
2019-02-18T18:23:11.316Z,8.27
2019-02-18T18:25:39.302Z,7.20
2019-02-18T18:28:09.285Z,7.60
2019-02-18T18:30:36.826Z,7.00
2019-02-18T18:33:04.446Z,7.90
2019-02-18T18:35:32.639Z,7.27
2019-02-18T18:38:00.143Z,7.10
2019-02-18T18:40:28.707Z,7.97
2019-02-18T18:42:59.142Z,8.13
2019-02-18T18:45:27.282Z,9.73
2019-02-18T18:47:58.343Z,9.60
2019-02-18T18:50:26.405Z,10.50
2019-02-18T18:53:15.481Z,7.23
2019-02-18T18:55:51.199Z,10.00
2019-02-18T18:58:18.751Z,8.07
2019-02-18T19:00:46.625Z,8.90
2019-02-18T19:03:14.099Z,12.43
2019-02-18T19:05:41.532Z,11.50
2019-02-18T19:08:08.966Z,9.80
2019-02-18T19:10:36.364Z,11.70
2019-02-18T19:13:04.133Z,10.20
2019-02-18T19:15:31.647Z,16.17
2019-02-18T19:17:59.617Z,15.33
2019-02-18T19:20:29.767Z,13.40
2019-02-18T19:23:00.415Z,14.53
2019-02-18T19:25:27.991Z,11.70
2019-02-18T19:27:55.613Z,9.23
2019-02-18T19:30:24.567Z,10.80
2019-02-18T19:32:51.985Z,12.27
2019-02-18T19:35:19.464Z,9.90
2019-02-18T19:37:47.149Z,8.67
2019-02-18T19:40:14.813Z,9.97
2019-02-18T19:42:42.600Z,10.67
2019-02-18T19:45:14.583Z,9.93
2019-02-18T19:47:42.357Z,9.73
2019-02-18T19:50:09.849Z,9.50
2019-02-18T19:52:37.240Z,9.63
2019-02-18T19:55:05.257Z,11.07
2019-02-18T19:57:33.277Z,9.67
2019-02-18T20:00:00.666Z,9.50
2019-02-18T20:02:30.417Z,10.80
2019-02-18T20:04:57.802Z,10.70
2019-02-18T20:07:25.363Z,11.03
2019-02-18T20:09:52.956Z,10.63
2019-02-18T20:12:20.281Z,10.87
2019-02-18T20:14:48.219Z,11.87
2019-02-18T20:17:16.193Z,9.83
2019-02-18T20:19:44.133Z,10.87
2019-02-18T20:22:12.230Z,11.73
2019-02-18T20:24:40.127Z,13.53
2019-02-18T20:27:07.720Z,10.20
2019-02-18T20:29:35.094Z,10.17
2019-02-18T20:32:05.950Z,11.60
2019-02-18T20:34:33.339Z,10.97
2019-02-18T20:37:00.805Z,9.70
2019-02-18T20:39:28.237Z,12.80
2019-02-18T20:41:55.889Z,10.93
2019-02-18T20:44:23.995Z,12.03
2019-02-18T20:46:51.744Z,10.33
2019-02-18T20:49:19.314Z,11.07
2019-02-18T20:51:47.172Z,9.23
2019-02-18T20:54:25.483Z,10.80
2019-02-18T20:56:53.349Z,9.27
2019-02-18T21:02:19.612Z,9.97
2019-02-18T21:04:47.029Z,11.90
2019-02-18T21:07:34.468Z,10.27
2019-02-18T21:10:01.809Z,10.13
2019-02-18T21:12:38.127Z,10.63
2019-02-18T21:15:05.694Z,9.27
2019-02-18T21:17:33.513Z,10.17
2019-02-18T21:20:01.264Z,12.07
2019-02-18T21:22:58.640Z,10.87
2019-02-18T21:28:02.484Z,12.27
2019-02-18T21:30:29.905Z,9.93
2019-02-18T21:32:57.332Z,10.60
2019-02-18T21:35:29.385Z,13.03
2019-02-18T21:38:00.346Z,10.00
2019-02-18T21:40:27.609Z,9.43
2019-02-18T21:42:55.105Z,10.57
2019-02-18T21:45:22.327Z,8.53
2019-02-18T21:47:49.568Z,6.27
2019-02-18T21:50:17.348Z,6.60
2019-02-18T21:52:45.363Z,6.30
2019-02-18T21:55:32.279Z,5.87
2019-02-18T21:57:59.643Z,4.80
2019-02-18T22:00:27.003Z,5.00
2019-02-18T22:02:54.785Z,5.07
2019-02-18T22:05:22.243Z,5.00
2019-02-18T22:07:51.791Z,5.03
2019-02-18T22:10:19.326Z,5.70
2019-02-18T22:12:47.423Z,4.47
2019-02-18T22:15:14.917Z,4.63
2019-02-18T22:17:42.395Z,4.67
2019-02-18T22:20:10.021Z,4.83
2019-02-18T22:22:38.146Z,4.73
2019-02-18T22:25:06.981Z,5.23
2019-02-18T22:27:34.310Z,5.53
2019-02-18T22:30:01.672Z,5.87
2019-02-18T22:32:29.484Z,6.13
2019-02-18T22:37:58.195Z,7.33
2019-02-18T22:40:25.661Z,6.37
2019-02-18T22:42:53.279Z,7.80
2019-02-18T22:45:20.660Z,6.90
2019-02-18T22:47:48.119Z,6.20
2019-02-18T22:50:15.911Z,6.23
2019-02-18T22:52:43.253Z,7.13
2019-02-18T22:55:10.744Z,6.40
2019-02-18T22:57:38.479Z,6.50
2019-02-18T23:00:14.228Z,6.77
2019-02-18T23:02:44.330Z,6.60
2019-02-18T23:07:39.461Z,6.67
2019-02-18T23:10:06.994Z,6.50
2019-02-18T23:12:34.280Z,6.27
2019-02-18T23:15:01.962Z,6.40
2019-02-18T23:17:30.454Z,5.40
2019-02-18T23:19:57.892Z,5.10
2019-02-18T23:22:25.248Z,5.50
2019-02-18T23:24:52.677Z,4.73
2019-02-18T23:27:19.905Z,6.03
2019-02-18T23:29:47.277Z,5.33
2019-02-18T23:32:14.501Z,5.00
2019-02-18T23:36:45.691Z,6.13
2019-02-18T23:39:12.861Z,5.63
2019-02-18T23:41:40.380Z,7.37
2019-02-18T23:44:07.724Z,6.03
2019-02-18T23:46:35.082Z,5.17
2019-02-18T23:49:02.513Z,5.37
2019-02-18T23:51:30.039Z,5.50
2019-02-18T23:53:57.471Z,4.70
2019-02-18T23:56:24.945Z,4.97
2019-02-18T23:58:52.375Z,5.23
